createdAt,value
2019-02-22T00:00:59.695Z,17.87
2019-02-22T00:05:54.280Z,14.93
2019-02-22T00:10:48.881Z,15.67
2019-02-22T00:15:43.482Z,16.67
2019-02-22T00:20:38.079Z,16.33
2019-02-22T00:25:32.673Z,18.20
2019-02-22T00:30:27.243Z,16.03
2019-02-22T00:35:21.913Z,17.83
2019-02-22T00:40:16.511Z,17.70
2019-02-22T00:45:11.177Z,17.13
2019-02-22T00:50:06.674Z,17.10
2019-02-22T00:55:01.281Z,17.50
2019-02-22T00:59:55.845Z,17.17
2019-02-22T01:04:50.451Z,17.80
2019-02-22T01:09:45.044Z,18.00
2019-02-22T01:14:39.625Z,17.47
2019-02-22T01:19:34.207Z,18.00
2019-02-22T01:24:28.806Z,19.40
2019-02-22T01:29:23.403Z,19.27
2019-02-22T01:34:18.001Z,18.87
2019-02-22T01:39:12.663Z,19.23
2019-02-22T01:44:10.286Z,18.80
2019-02-22T01:49:04.881Z,19.00
2019-02-22T01:53:59.458Z,19.70
2019-02-22T01:58:54.036Z,21.80
2019-02-22T02:03:48.628Z,20.20
2019-02-22T02:08:43.218Z,19.93
2019-02-22T02:13:37.809Z,19.47
2019-02-22T02:18:32.406Z,19.20
2019-02-22T02:23:26.996Z,18.90
2019-02-22T02:28:21.598Z,19.63
2019-02-22T02:33:16.189Z,18.50
2019-02-22T02:38:10.782Z,19.97
2019-02-22T02:43:05.439Z,19.73
2019-02-22T02:48:00.025Z,19.80
2019-02-22T02:52:54.619Z,20.00
2019-02-22T02:57:49.211Z,22.63
2019-02-22T03:02:43.804Z,22.37
2019-02-22T03:07:40.032Z,20.33
2019-02-22T03:12:34.623Z,18.77
2019-02-22T03:17:29.225Z,19.23
2019-02-22T03:22:23.818Z,19.90
2019-02-22T03:27:18.414Z,21.07
2019-02-22T03:32:13.011Z,20.53
2019-02-22T03:37:07.596Z,18.63
2019-02-22T03:42:02.206Z,17.67
2019-02-22T03:46:56.808Z,18.67
2019-02-22T03:51:51.415Z,21.00
2019-02-22T03:56:46.078Z,18.30
2019-02-22T04:01:40.671Z,18.60
2019-02-22T04:06:35.273Z,18.23
2019-02-22T04:11:29.849Z,17.10
2019-02-22T04:16:24.451Z,18.77
2019-02-22T04:21:19.041Z,17.67
2019-02-22T04:26:13.623Z,17.93
2019-02-22T04:31:08.210Z,17.33
2019-02-22T04:36:02.804Z,18.47
2019-02-22T04:40:57.389Z,18.57
2019-02-22T04:45:51.990Z,16.67
2019-02-22T04:50:46.736Z,19.10
2019-02-22T04:55:41.350Z,19.27
2019-02-22T05:00:35.917Z,18.50
2019-02-22T05:05:30.602Z,18.50
2019-02-22T05:10:25.183Z,17.87
2019-02-22T05:15:19.840Z,17.13
2019-02-22T05:20:14.434Z,18.37
2019-02-22T05:25:09.147Z,18.60
2019-02-22T05:30:03.803Z,16.90
2019-02-22T05:34:58.406Z,19.00
2019-02-22T05:39:53.010Z,19.10
2019-02-22T05:44:47.583Z,17.63
2019-02-22T05:49:42.176Z,19.00
2019-02-22T05:54:36.838Z,17.60
2019-02-22T05:59:31.442Z,17.57
2019-02-22T06:04:26.034Z,17.43
2019-02-22T06:09:20.632Z,19.70
2019-02-22T06:14:15.214Z,18.20
2019-02-22T06:19:09.807Z,18.07
2019-02-22T06:24:04.472Z,17.27
2019-02-22T06:28:59.049Z,16.97
2019-02-22T06:33:53.644Z,18.27
2019-02-22T06:38:48.428Z,17.33
2019-02-22T06:43:42.987Z,19.33
2019-02-22T06:48:37.581Z,20.07
2019-02-22T06:53:32.182Z,20.63
2019-02-22T06:58:26.762Z,23.93
2019-02-22T07:03:22.429Z,22.03
2019-02-22T07:08:22.869Z,20.07
2019-02-22T07:13:17.726Z,20.50
2019-02-22T07:18:13.687Z,20.63
2019-02-22T07:23:08.298Z,19.47
2019-02-22T07:28:03.460Z,19.07
2019-02-22T07:33:08.257Z,19.57
2019-02-22T07:38:04.656Z,21.10
2019-02-22T07:43:08.101Z,20.00
2019-02-22T07:48:00.070Z,19.73
2019-02-22T07:52:56.555Z,19.30
2019-02-22T07:57:52.825Z,19.23
2019-02-22T08:02:47.471Z,19.90
2019-02-22T08:07:45.427Z,20.67
2019-02-22T08:12:40.266Z,18.83
2019-02-22T08:17:34.881Z,18.37
2019-02-22T08:22:29.465Z,16.60
2019-02-22T08:27:24.096Z,17.00
2019-02-22T08:32:25.275Z,14.93
2019-02-22T08:37:20.168Z,16.60
2019-02-22T08:42:15.096Z,18.60
2019-02-22T08:47:09.729Z,18.87
2019-02-22T08:52:04.439Z,22.47
2019-02-22T08:57:03.215Z,20.30
2019-02-22T09:02:02.908Z,20.60
2019-02-22T09:06:57.797Z,20.07
2019-02-22T09:11:52.383Z,20.70
2019-02-22T09:16:47.065Z,17.70
2019-02-22T09:21:41.660Z,15.43
2019-02-22T09:26:37.418Z,14.23
2019-02-22T09:31:32.061Z,14.87
2019-02-22T09:36:26.791Z,13.90
2019-02-22T09:41:21.391Z,13.27
2019-02-22T09:46:16.260Z,13.20
2019-02-22T09:51:11.137Z,14.70
2019-02-22T09:56:05.746Z,14.87
2019-02-22T10:01:00.340Z,15.43
2019-02-22T10:05:54.963Z,15.60
2019-02-22T10:10:49.786Z,15.20
2019-02-22T10:15:44.520Z,14.77
2019-02-22T10:20:39.130Z,16.03
2019-02-22T10:25:34.490Z,15.70
2019-02-22T10:30:29.391Z,16.23
2019-02-22T10:35:23.997Z,15.87
2019-02-22T10:40:18.695Z,15.67
2019-02-22T10:45:13.422Z,16.37
2019-02-22T10:50:09.930Z,17.27
2019-02-22T10:55:07.382Z,17.00
2019-02-22T11:00:02.382Z,15.73
2019-02-22T11:04:57.184Z,15.37
2019-02-22T11:09:51.906Z,15.63
2019-02-22T11:14:46.507Z,16.80
2019-02-22T11:19:41.797Z,16.77
2019-02-22T11:24:36.387Z,16.33
2019-02-22T11:29:30.985Z,15.73
2019-02-22T11:34:25.669Z,13.87
2019-02-22T11:39:22.115Z,14.87
2019-02-22T11:44:16.734Z,14.13
2019-02-22T11:49:11.361Z,15.20
2019-02-22T11:54:05.978Z,15.23
2019-02-22T11:59:00.558Z,13.97
2019-02-22T12:03:55.178Z,15.63
2019-02-22T12:08:49.777Z,16.10
2019-02-22T12:13:44.431Z,15.07
2019-02-22T12:18:39.104Z,16.07
2019-02-22T12:23:33.697Z,16.63
2019-02-22T12:28:28.302Z,17.43
2019-02-22T12:33:22.936Z,17.30
2019-02-22T12:38:19.458Z,15.90
2019-02-22T12:43:14.001Z,18.67
2019-02-22T12:48:08.643Z,18.97
2019-02-22T12:53:03.225Z,17.17
2019-02-22T12:57:57.877Z,18.07
2019-02-22T13:03:01.513Z,19.00
2019-02-22T13:07:52.426Z,18.77
2019-02-22T13:12:46.159Z,17.60
2019-02-22T13:17:40.908Z,18.27
2019-02-22T13:22:35.595Z,18.73
2019-02-22T13:27:36.266Z,16.50
2019-02-22T13:32:32.402Z,16.60
2019-02-22T13:37:27.054Z,17.10
2019-02-22T13:42:21.728Z,16.83
2019-02-22T13:47:16.823Z,17.17
2019-02-22T13:52:11.635Z,18.23
2019-02-22T13:57:06.301Z,19.73
2019-02-22T14:02:00.892Z,18.03
2019-02-22T14:06:55.539Z,17.57
2019-02-22T14:11:50.196Z,20.83
2019-02-22T14:16:44.801Z,19.03
2019-02-22T14:21:39.413Z,19.10
2019-02-22T14:26:34.021Z,18.27
2019-02-22T14:31:28.649Z,17.73
2019-02-22T14:36:23.364Z,18.57
2019-02-22T14:41:17.909Z,18.57
2019-02-22T14:46:12.591Z,18.47
2019-02-22T14:51:07.651Z,19.27
2019-02-22T14:56:02.336Z,19.37
2019-02-22T15:00:57.151Z,19.80
2019-02-22T15:05:51.773Z,18.83
2019-02-22T15:10:48.125Z,19.70
2019-02-22T15:16:03.639Z,21.13
2019-02-22T15:20:56.995Z,21.23
2019-02-22T15:25:51.770Z,20.90
2019-02-22T15:30:46.432Z,21.63
2019-02-22T15:35:41.121Z,20.47
2019-02-22T15:40:35.714Z,20.33
2019-02-22T15:45:30.428Z,21.60
2019-02-22T15:50:25.136Z,21.00
2019-02-22T15:55:19.696Z,20.37
2019-02-22T16:00:31.100Z,20.17
2019-02-22T16:05:30.300Z,20.20
2019-02-22T16:10:25.187Z,20.33
2019-02-22T16:15:20.129Z,19.50
2019-02-22T16:20:15.087Z,19.97
2019-02-22T16:25:19.143Z,20.10
2019-02-22T16:30:12.847Z,19.63
2019-02-22T16:35:07.766Z,21.23
2019-02-22T16:40:02.359Z,21.07
2019-02-22T16:44:56.953Z,20.70
2019-02-22T16:49:51.565Z,21.40
2019-02-22T16:54:46.166Z,21.67
2019-02-22T16:59:40.768Z,21.87
2019-02-22T17:04:35.370Z,22.03
2019-02-22T17:09:30.014Z,21.37
2019-02-22T17:14:24.614Z,21.70
2019-02-22T17:19:19.202Z,22.20
2019-02-22T17:24:13.801Z,23.47
2019-02-22T17:29:08.398Z,24.17
2019-02-22T17:34:02.980Z,24.10
2019-02-22T17:38:57.561Z,23.50
2019-02-22T17:43:52.151Z,21.67
2019-02-22T17:48:47.086Z,22.50
2019-02-22T17:53:41.845Z,21.87
2019-02-22T17:58:36.442Z,22.43
2019-02-22T18:03:31.034Z,22.87
2019-02-22T18:08:25.622Z,22.50
2019-02-22T18:13:20.215Z,22.30
2019-02-22T18:18:16.099Z,22.67
2019-02-22T18:23:10.680Z,22.20
2019-02-22T18:28:05.265Z,22.67
2019-02-22T18:32:59.855Z,22.87
2019-02-22T18:37:54.440Z,22.47
2019-02-22T18:42:49.062Z,22.57
2019-02-22T18:47:43.660Z,22.53
2019-02-22T18:52:38.386Z,23.43
2019-02-22T18:57:33.002Z,23.03
2019-02-22T19:02:27.589Z,24.47
2019-02-22T19:07:22.190Z,23.43
2019-02-22T19:12:16.782Z,23.33
2019-02-22T19:17:11.380Z,23.67
2019-02-22T19:22:05.967Z,23.93
2019-02-22T19:27:00.550Z,24.37
2019-02-22T19:31:55.149Z,23.17
2019-02-22T19:36:49.748Z,24.67
2019-02-22T19:41:44.331Z,24.17
2019-02-22T19:46:38.925Z,26.23
2019-02-22T19:51:33.512Z,25.63
2019-02-22T19:56:28.121Z,24.80
2019-02-22T20:01:22.730Z,27.30
2019-02-22T20:06:17.336Z,26.93
2019-02-22T20:11:11.928Z,24.47
2019-02-22T20:16:06.526Z,27.17
2019-02-22T20:21:01.119Z,26.20
2019-02-22T20:25:55.712Z,20.53
2019-02-22T20:30:50.316Z,16.13
2019-02-22T20:35:44.926Z,16.23
2019-02-22T20:40:39.586Z,17.37
2019-02-22T20:45:34.252Z,15.47
2019-02-22T20:50:28.837Z,15.10
2019-02-22T20:55:23.434Z,13.13
2019-02-22T21:00:27.280Z,14.37
2019-02-22T21:05:21.925Z,13.20
2019-02-22T21:10:21.848Z,12.90
2019-02-22T21:15:16.512Z,12.03
2019-02-22T21:20:20.569Z,11.97
2019-02-22T21:25:15.311Z,11.90
2019-02-22T21:30:14.348Z,12.87
2019-02-22T21:35:10.838Z,10.80
2019-02-22T21:40:08.039Z,10.90
2019-02-22T21:45:02.879Z,11.87
2019-02-22T21:49:57.479Z,11.47
2019-02-22T21:54:52.059Z,10.97
2019-02-22T21:59:46.662Z,11.30
2019-02-22T22:04:41.238Z,11.27
2019-02-22T22:09:35.846Z,11.70
2019-02-22T22:14:30.468Z,11.93
2019-02-22T22:19:25.047Z,12.47
2019-02-22T22:24:19.643Z,13.30
2019-02-22T22:29:14.247Z,12.90
2019-02-22T22:34:08.848Z,11.90
2019-02-22T22:39:03.931Z,15.90
2019-02-22T22:43:58.540Z,12.07
2019-02-22T22:48:53.135Z,13.33
2019-02-22T22:53:47.729Z,14.53
2019-02-22T22:58:42.303Z,16.40
2019-02-22T23:03:36.974Z,14.53
2019-02-22T23:08:31.565Z,13.87
2019-02-22T23:13:26.430Z,13.43
2019-02-22T23:18:21.103Z,13.80
2019-02-22T23:23:15.671Z,13.53
2019-02-22T23:28:10.268Z,14.10
2019-02-22T23:33:04.992Z,14.03
2019-02-22T23:37:59.619Z,13.70
2019-02-22T23:42:54.282Z,13.37
2019-02-22T23:47:48.853Z,12.70
2019-02-22T23:52:43.455Z,12.97
2019-02-22T23:57:38.041Z,13.27
